sensor_id;sensor_type;location;lat;lon;timestamp;P1;durP1;ratioP1;P2;durP2;ratioP2
54853;SDS011;40747;49.480;8.658;2022-09-13T00:00:05;6.38;;;1.42;;
54853;SDS011;40747;49.480;8.658;2022-09-13T00:02:31;2.55;;;1.77;;
54853;SDS011;40747;49.480;8.658;2022-09-13T00:04:56;2.88;;;1.83;;
54853;SDS011;40747;49.480;8.658;2022-09-13T00:07:22;6.75;;;1.35;;
54853;SDS011;40747;49.480;8.658;2022-09-13T00:09:47;2.85;;;1.60;;
54853;SDS011;40747;49.480;8.658;2022-09-13T00:12:13;1.52;;;1.40;;
54853;SDS011;40747;49.480;8.658;2022-09-13T00:14:39;2.78;;;1.80;;
54853;SDS011;40747;49.480;8.658;2022-09-13T00:17:04;1.67;;;1.33;;
54853;SDS011;40747;49.480;8.658;2022-09-13T00:19:30;3.85;;;1.80;;
54853;SDS011;40747;49.480;8.658;2022-09-13T00:21:55;3.30;;;1.65;;
54853;SDS011;40747;49.480;8.658;2022-09-13T00:24:20;1.80;;;1.45;;
54853;SDS011;40747;49.480;8.658;2022-09-13T00:26:45;1.38;;;0.90;;
54853;SDS011;40747;49.480;8.658;2022-09-13T00:29:11;5.45;;;1.60;;
54853;SDS011;40747;49.480;8.658;2022-09-13T00:31:36;2.38;;;1.40;;
54853;SDS011;40747;49.480;8.658;2022-09-13T00:34:01;1.83;;;1.40;;
54853;SDS011;40747;49.480;8.658;2022-09-13T00:36:27;1.88;;;1.45;;
54853;SDS011;40747;49.480;8.658;2022-09-13T00:38:52;2.08;;;1.38;;
54853;SDS011;40747;49.480;8.658;2022-09-13T00:41:18;2.85;;;1.45;;
54853;SDS011;40747;49.480;8.658;2022-09-13T00:43:49;3.22;;;1.40;;
54853;SDS011;40747;49.480;8.658;2022-09-13T00:46:17;2.00;;;1.52;;
54853;SDS011;40747;49.480;8.658;2022-09-13T00:48:51;2.60;;;1.20;;
54853;SDS011;40747;49.480;8.658;2022-09-13T00:51:20;2.60;;;1.13;;
54853;SDS011;40747;49.480;8.658;2022-09-13T00:53:47;2.20;;;1.60;;
54853;SDS011;40747;49.480;8.658;2022-09-13T00:59:10;1.90;;;1.50;;
54853;SDS011;40747;49.480;8.658;2022-09-13T01:01:40;1.55;;;1.15;;
54853;SDS011;40747;49.480;8.658;2022-09-13T01:04:11;4.68;;;1.38;;
54853;SDS011;40747;49.480;8.658;2022-09-13T01:06:37;1.42;;;1.08;;
54853;SDS011;40747;49.480;8.658;2022-09-13T01:09:04;1.85;;;1.30;;
54853;SDS011;40747;49.480;8.658;2022-09-13T01:11:35;1.23;;;1.10;;
54853;SDS011;40747;49.480;8.658;2022-09-13T01:16:41;3.03;;;0.90;;
54853;SDS011;40747;49.480;8.658;2022-09-13T01:19:07;1.88;;;1.45;;
54853;SDS011;40747;49.480;8.658;2022-09-13T01:30:05;2.75;;;1.63;;
54853;SDS011;40747;49.480;8.658;2022-09-13T01:33:07;1.75;;;1.33;;
54853;SDS011;40747;49.480;8.658;2022-09-13T01:35:42;1.73;;;1.40;;
54853;SDS011;40747;49.480;8.658;2022-09-13T01:38:39;2.10;;;1.33;;
54853;SDS011;40747;49.480;8.658;2022-09-13T01:41:40;3.83;;;1.25;;
54853;SDS011;40747;49.480;8.658;2022-09-13T01:47:27;5.32;;;1.30;;
54853;SDS011;40747;49.480;8.658;2022-09-13T01:52:46;1.80;;;1.30;;
54853;SDS011;40747;49.480;8.658;2022-09-13T01:55:20;2.53;;;1.30;;
54853;SDS011;40747;49.480;8.658;2022-09-13T01:58:14;2.10;;;1.52;;
54853;SDS011;40747;49.480;8.658;2022-09-13T02:00:50;3.13;;;1.50;;
54853;SDS011;40747;49.480;8.658;2022-09-13T02:03:35;2.78;;;1.83;;
54853;SDS011;40747;49.480;8.658;2022-09-13T02:06:05;2.00;;;1.30;;
54853;SDS011;40747;49.480;8.658;2022-09-13T02:08:38;2.70;;;1.52;;
54853;SDS011;40747;49.480;8.658;2022-09-13T02:11:08;1.23;;;1.10;;
54853;SDS011;40747;49.480;8.658;2022-09-13T02:13:37;3.28;;;1.30;;
54853;SDS011;40747;49.480;8.658;2022-09-13T02:16:11;1.58;;;1.25;;
54853;SDS011;40747;49.480;8.658;2022-09-13T02:18:45;2.50;;;1.50;;
54853;SDS011;40747;49.480;8.658;2022-09-13T02:21:19;1.73;;;1.35;;
54853;SDS011;40747;49.480;8.658;2022-09-13T02:23:52;3.33;;;1.60;;
54853;SDS011;40747;49.480;8.658;2022-09-13T02:26:22;3.05;;;1.35;;
54853;SDS011;40747;49.480;8.658;2022-09-13T02:28:53;2.03;;;1.58;;
54853;SDS011;40747;49.480;8.658;2022-09-13T02:31:26;2.03;;;1.60;;
54853;SDS011;40747;49.480;8.658;2022-09-13T02:33:58;1.63;;;1.40;;
54853;SDS011;40747;49.480;8.658;2022-09-13T02:36:28;6.95;;;1.48;;
54853;SDS011;40747;49.480;8.658;2022-09-13T02:39:04;1.70;;;1.15;;
54853;SDS011;40747;49.480;8.658;2022-09-13T02:41:57;2.17;;;1.60;;
54853;SDS011;40747;49.480;8.658;2022-09-13T02:49:42;3.70;;;1.63;;
54853;SDS011;40747;49.480;8.658;2022-09-13T02:52:37;2.53;;;1.63;;
54853;SDS011;40747;49.480;8.658;2022-09-13T02:55:15;4.18;;;1.70;;
54853;SDS011;40747;49.480;8.658;2022-09-13T03:00:38;3.50;;;1.75;;
54853;SDS011;40747;49.480;8.658;2022-09-13T03:03:04;2.20;;;1.38;;
54853;SDS011;40747;49.480;8.658;2022-09-13T03:05:33;2.58;;;1.52;;
54853;SDS011;40747;49.480;8.658;2022-09-13T03:07:59;1.98;;;1.45;;
54853;SDS011;40747;49.480;8.658;2022-09-13T03:10:26;4.53;;;1.80;;
54853;SDS011;40747;49.480;8.658;2022-09-13T03:13:24;10.27;;;1.55;;
54853;SDS011;40747;49.480;8.658;2022-09-13T03:31:51;3.17;;;2.13;;
54853;SDS011;40747;49.480;8.658;2022-09-13T03:34:39;2.15;;;1.45;;
54853;SDS011;40747;49.480;8.658;2022-09-13T03:37:21;2.53;;;1.25;;
54853;SDS011;40747;49.480;8.658;2022-09-13T03:39:54;4.20;;;1.60;;
54853;SDS011;40747;49.480;8.658;2022-09-13T03:42:27;1.50;;;1.33;;
54853;SDS011;40747;49.480;8.658;2022-09-13T03:44:59;2.17;;;1.42;;
54853;SDS011;40747;49.480;8.658;2022-09-13T03:47:27;2.60;;;1.88;;
54853;SDS011;40747;49.480;8.658;2022-09-13T03:49:57;1.45;;;1.27;;
54853;SDS011;40747;49.480;8.658;2022-09-13T03:52:24;3.40;;;1.55;;
54853;SDS011;40747;49.480;8.658;2022-09-13T03:54:51;2.03;;;1.50;;
54853;SDS011;40747;49.480;8.658;2022-09-13T03:57:18;2.15;;;1.60;;
54853;SDS011;40747;49.480;8.658;2022-09-13T03:59:46;1.67;;;1.20;;
54853;SDS011;40747;49.480;8.658;2022-09-13T04:02:12;2.80;;;1.65;;
54853;SDS011;40747;49.480;8.658;2022-09-13T04:04:38;2.75;;;1.75;;
54853;SDS011;40747;49.480;8.658;2022-09-13T04:07:05;3.50;;;1.75;;
54853;SDS011;40747;49.480;8.658;2022-09-13T04:09:31;2.58;;;1.67;;
54853;SDS011;40747;49.480;8.658;2022-09-13T04:11:56;4.13;;;1.67;;
54853;SDS011;40747;49.480;8.658;2022-09-13T04:14:22;2.50;;;1.80;;
54853;SDS011;40747;49.480;8.658;2022-09-13T04:16:50;3.80;;;1.73;;
54853;SDS011;40747;49.480;8.658;2022-09-13T04:19:16;3.58;;;1.70;;
54853;SDS011;40747;49.480;8.658;2022-09-13T04:21:42;4.22;;;2.00;;
54853;SDS011;40747;49.480;8.658;2022-09-13T04:24:08;2.75;;;1.90;;
54853;SDS011;40747;49.480;8.658;2022-09-13T04:26:33;2.10;;;1.67;;
54853;SDS011;40747;49.480;8.658;2022-09-13T04:28:59;4.35;;;1.83;;
54853;SDS011;40747;49.480;8.658;2022-09-13T04:31:24;1.67;;;1.38;;
54853;SDS011;40747;49.480;8.658;2022-09-13T04:33:50;2.92;;;1.40;;
54853;SDS011;40747;49.480;8.658;2022-09-13T04:36:15;2.35;;;1.10;;
54853;SDS011;40747;49.480;8.658;2022-09-13T04:38:40;2.15;;;1.30;;
54853;SDS011;40747;49.480;8.658;2022-09-13T04:41:06;1.98;;;1.35;;
54853;SDS011;40747;49.480;8.658;2022-09-13T04:43:31;1.98;;;1.40;;
54853;SDS011;40747;49.480;8.658;2022-09-13T04:46:00;2.25;;;1.80;;
54853;SDS011;40747;49.480;8.658;2022-09-13T04:48:25;2.03;;;1.65;;
54853;SDS011;40747;49.480;8.658;2022-09-13T04:50:51;2.42;;;1.30;;
54853;SDS011;40747;49.480;8.658;2022-09-13T04:53:16;3.03;;;1.80;;
54853;SDS011;40747;49.480;8.658;2022-09-13T04:55:42;1.67;;;1.45;;
54853;SDS011;40747;49.480;8.658;2022-09-13T04:58:07;2.88;;;1.90;;
54853;SDS011;40747;49.480;8.658;2022-09-13T05:00:33;5.28;;;2.10;;
54853;SDS011;40747;49.480;8.658;2022-09-13T05:02:58;2.80;;;1.88;;
54853;SDS011;40747;49.480;8.658;2022-09-13T05:05:24;1.88;;;1.52;;
54853;SDS011;40747;49.480;8.658;2022-09-13T05:07:53;2.90;;;1.80;;
54853;SDS011;40747;49.480;8.658;2022-09-13T05:10:18;3.95;;;1.40;;
54853;SDS011;40747;49.480;8.658;2022-09-13T05:12:47;3.08;;;1.55;;
54853;SDS011;40747;49.480;8.658;2022-09-13T05:15:12;3.13;;;1.70;;
54853;SDS011;40747;49.480;8.658;2022-09-13T05:17:38;2.28;;;1.73;;
54853;SDS011;40747;49.480;8.658;2022-09-13T05:20:04;2.03;;;1.55;;
54853;SDS011;40747;49.480;8.658;2022-09-13T05:22:30;2.33;;;1.67;;
54853;SDS011;40747;49.480;8.658;2022-09-13T05:24:55;2.58;;;1.88;;
54853;SDS011;40747;49.480;8.658;2022-09-13T05:27:20;2.75;;;2.00;;
54853;SDS011;40747;49.480;8.658;2022-09-13T05:29:46;2.35;;;1.80;;
54853;SDS011;40747;49.480;8.658;2022-09-13T05:32:12;4.57;;;2.03;;
54853;SDS011;40747;49.480;8.658;2022-09-13T05:34:37;2.50;;;1.90;;
54853;SDS011;40747;49.480;8.658;2022-09-13T05:37:02;1.85;;;1.25;;
54853;SDS011;40747;49.480;8.658;2022-09-13T05:39:28;2.80;;;1.92;;
54853;SDS011;40747;49.480;8.658;2022-09-13T05:41:53;1.42;;;1.30;;
54853;SDS011;40747;49.480;8.658;2022-09-13T05:44:18;1.83;;;1.50;;
54853;SDS011;40747;49.480;8.658;2022-09-13T05:46:47;2.80;;;1.90;;
54853;SDS011;40747;49.480;8.658;2022-09-13T05:49:12;2.75;;;1.88;;
54853;SDS011;40747;49.480;8.658;2022-09-13T05:51:38;2.90;;;1.80;;
54853;SDS011;40747;49.480;8.658;2022-09-13T05:54:03;5.32;;;1.63;;
54853;SDS011;40747;49.480;8.658;2022-09-13T05:56:29;1.67;;;1.42;;
54853;SDS011;40747;49.480;8.658;2022-09-13T05:58:56;2.20;;;1.83;;
54853;SDS011;40747;49.480;8.658;2022-09-13T06:01:22;3.10;;;1.60;;
54853;SDS011;40747;49.480;8.658;2022-09-13T06:03:50;2.30;;;1.65;;
54853;SDS011;40747;49.480;8.658;2022-09-13T06:06:17;2.22;;;1.63;;
54853;SDS011;40747;49.480;8.658;2022-09-13T06:08:42;2.92;;;1.95;;
54853;SDS011;40747;49.480;8.658;2022-09-13T06:11:08;3.65;;;2.25;;
54853;SDS011;40747;49.480;8.658;2022-09-13T06:13:36;2.65;;;1.90;;
54853;SDS011;40747;49.480;8.658;2022-09-13T06:16:03;2.22;;;1.60;;
54853;SDS011;40747;49.480;8.658;2022-09-13T06:18:30;2.45;;;1.55;;
54853;SDS011;40747;49.480;8.658;2022-09-13T06:20:57;3.85;;;2.08;;
54853;SDS011;40747;49.480;8.658;2022-09-13T06:23:24;2.67;;;1.83;;
54853;SDS011;40747;49.480;8.658;2022-09-13T06:25:50;2.58;;;1.92;;
54853;SDS011;40747;49.480;8.658;2022-09-13T06:28:27;2.38;;;1.75;;
54853;SDS011;40747;49.480;8.658;2022-09-13T06:30:57;4.80;;;1.85;;
54853;SDS011;40747;49.480;8.658;2022-09-13T06:33:27;3.78;;;2.28;;
54853;SDS011;40747;49.480;8.658;2022-09-13T06:35:53;3.03;;;2.40;;
54853;SDS011;40747;49.480;8.658;2022-09-13T06:38:18;5.07;;;1.90;;
54853;SDS011;40747;49.480;8.658;2022-09-13T06:40:43;4.15;;;2.05;;
54853;SDS011;40747;49.480;8.658;2022-09-13T06:43:09;3.72;;;1.50;;
54853;SDS011;40747;49.480;8.658;2022-09-13T06:45:34;4.43;;;2.40;;
54853;SDS011;40747;49.480;8.658;2022-09-13T06:47:59;2.95;;;1.73;;
54853;SDS011;40747;49.480;8.658;2022-09-13T06:50:24;2.30;;;1.95;;
54853;SDS011;40747;49.480;8.658;2022-09-13T06:52:50;4.78;;;1.95;;
54853;SDS011;40747;49.480;8.658;2022-09-13T06:55:15;2.22;;;1.75;;
54853;SDS011;40747;49.480;8.658;2022-09-13T06:57:40;3.05;;;2.10;;
54853;SDS011;40747;49.480;8.658;2022-09-13T07:00:06;2.78;;;2.00;;
54853;SDS011;40747;49.480;8.658;2022-09-13T07:02:32;3.30;;;2.08;;
54853;SDS011;40747;49.480;8.658;2022-09-13T07:04:57;2.08;;;1.58;;
54853;SDS011;40747;49.480;8.658;2022-09-13T07:07:22;2.00;;;1.42;;
54853;SDS011;40747;49.480;8.658;2022-09-13T07:09:48;3.45;;;1.98;;
54853;SDS011;40747;49.480;8.658;2022-09-13T07:12:13;3.95;;;2.78;;
54853;SDS011;40747;49.480;8.658;2022-09-13T07:14:38;3.20;;;2.10;;
54853;SDS011;40747;49.480;8.658;2022-09-13T07:17:03;3.80;;;2.45;;
54853;SDS011;40747;49.480;8.658;2022-09-13T07:19:29;3.63;;;1.90;;
54853;SDS011;40747;49.480;8.658;2022-09-13T07:21:55;2.92;;;2.00;;
54853;SDS011;40747;49.480;8.658;2022-09-13T07:24:21;4.38;;;1.92;;
54853;SDS011;40747;49.480;8.658;2022-09-13T07:26:47;3.95;;;2.38;;
54853;SDS011;40747;49.480;8.658;2022-09-13T07:29:15;3.47;;;2.25;;
54853;SDS011;40747;49.480;8.658;2022-09-13T07:31:44;6.68;;;2.70;;
54853;SDS011;40747;49.480;8.658;2022-09-13T07:34:18;2.45;;;1.98;;
54853;SDS011;40747;49.480;8.658;2022-09-13T07:36:46;3.22;;;2.10;;
54853;SDS011;40747;49.480;8.658;2022-09-13T07:39:15;4.15;;;2.70;;
54853;SDS011;40747;49.480;8.658;2022-09-13T07:41:41;4.70;;;2.60;;
54853;SDS011;40747;49.480;8.658;2022-09-13T07:44:08;4.10;;;2.53;;
54853;SDS011;40747;49.480;8.658;2022-09-13T07:46:35;4.03;;;2.45;;
54853;SDS011;40747;49.480;8.658;2022-09-13T07:49:04;5.75;;;2.47;;
54853;SDS011;40747;49.480;8.658;2022-09-13T07:51:31;2.40;;;2.20;;
54853;SDS011;40747;49.480;8.658;2022-09-13T07:54:01;4.47;;;2.80;;
54853;SDS011;40747;49.480;8.658;2022-09-13T07:56:29;3.40;;;2.38;;
54853;SDS011;40747;49.480;8.658;2022-09-13T07:58:57;3.45;;;2.60;;
54853;SDS011;40747;49.480;8.658;2022-09-13T08:01:25;8.90;;;2.67;;
54853;SDS011;40747;49.480;8.658;2022-09-13T08:06:28;5.57;;;2.47;;
54853;SDS011;40747;49.480;8.658;2022-09-13T08:08:55;3.42;;;2.25;;
54853;SDS011;40747;49.480;8.658;2022-09-13T08:11:21;6.80;;;2.25;;
54853;SDS011;40747;49.480;8.658;2022-09-13T08:13:49;3.85;;;2.50;;
54853;SDS011;40747;49.480;8.658;2022-09-13T08:16:16;4.43;;;2.70;;
54853;SDS011;40747;49.480;8.658;2022-09-13T08:18:43;3.15;;;2.10;;
54853;SDS011;40747;49.480;8.658;2022-09-13T08:21:09;2.83;;;2.17;;
54853;SDS011;40747;49.480;8.658;2022-09-13T08:23:35;7.45;;;3.00;;
54853;SDS011;40747;49.480;8.658;2022-09-13T08:26:01;4.63;;;2.30;;
54853;SDS011;40747;49.480;8.658;2022-09-13T08:28:27;3.88;;;2.40;;
54853;SDS011;40747;49.480;8.658;2022-09-13T08:30:54;6.13;;;3.40;;
54853;SDS011;40747;49.480;8.658;2022-09-13T08:33:19;5.43;;;2.67;;
54853;SDS011;40747;49.480;8.658;2022-09-13T08:35:51;5.55;;;2.55;;
54853;SDS011;40747;49.480;8.658;2022-09-13T08:38:17;4.15;;;2.50;;
54853;SDS011;40747;49.480;8.658;2022-09-13T08:40:44;4.30;;;2.58;;
54853;SDS011;40747;49.480;8.658;2022-09-13T08:49:00;4.78;;;2.28;;
54853;SDS011;40747;49.480;8.658;2022-09-13T08:51:46;5.25;;;2.45;;
54853;SDS011;40747;49.480;8.658;2022-09-13T08:54:16;8.45;;;2.63;;
54853;SDS011;40747;49.480;8.658;2022-09-13T09:05:26;3.50;;;2.30;;
54853;SDS011;40747;49.480;8.658;2022-09-13T09:07:58;4.78;;;2.47;;
54853;SDS011;40747;49.480;8.658;2022-09-13T09:10:38;2.58;;;1.90;;
54853;SDS011;40747;49.480;8.658;2022-09-13T09:13:07;3.20;;;2.50;;
54853;SDS011;40747;49.480;8.658;2022-09-13T09:15:45;4.95;;;2.72;;
54853;SDS011;40747;49.480;8.658;2022-09-13T09:18:24;4.18;;;2.47;;
54853;SDS011;40747;49.480;8.658;2022-09-13T09:20:55;8.32;;;2.05;;
54853;SDS011;40747;49.480;8.658;2022-09-13T09:25:59;3.38;;;2.25;;
54853;SDS011;40747;49.480;8.658;2022-09-13T09:28:37;3.40;;;2.05;;
54853;SDS011;40747;49.480;8.658;2022-09-13T09:31:03;2.38;;;1.75;;
54853;SDS011;40747;49.480;8.658;2022-09-13T09:33:40;4.00;;;2.47;;
54853;SDS011;40747;49.480;8.658;2022-09-13T09:36:22;3.83;;;2.58;;
54853;SDS011;40747;49.480;8.658;2022-09-13T09:39:02;8.48;;;3.25;;
54853;SDS011;40747;49.480;8.658;2022-09-13T09:41:30;5.50;;;3.08;;
54853;SDS011;40747;49.480;8.658;2022-09-13T09:46:43;3.65;;;2.67;;
54853;SDS011;40747;49.480;8.658;2022-09-13T09:49:17;4.25;;;2.92;;
54853;SDS011;40747;49.480;8.658;2022-09-13T09:52:06;4.05;;;3.08;;
54853;SDS011;40747;49.480;8.658;2022-09-13T09:54:36;6.00;;;3.00;;
54853;SDS011;40747;49.480;8.658;2022-09-13T09:57:03;4.00;;;2.63;;
54853;SDS011;40747;49.480;8.658;2022-09-13T09:59:32;5.03;;;2.97;;
54853;SDS011;40747;49.480;8.658;2022-09-13T10:02:01;4.68;;;3.47;;
54853;SDS011;40747;49.480;8.658;2022-09-13T10:04:52;6.88;;;3.80;;
54853;SDS011;40747;49.480;8.658;2022-09-13T10:07:32;4.95;;;3.17;;
54853;SDS011;40747;49.480;8.658;2022-09-13T10:10:02;5.75;;;3.28;;
54853;SDS011;40747;49.480;8.658;2022-09-13T10:12:33;5.03;;;3.40;;
54853;SDS011;40747;49.480;8.658;2022-09-13T10:15:26;4.95;;;3.08;;
54853;SDS011;40747;49.480;8.658;2022-09-13T10:20:39;4.95;;;2.92;;
54853;SDS011;40747;49.480;8.658;2022-09-13T10:23:22;6.18;;;2.92;;
54853;SDS011;40747;49.480;8.658;2022-09-13T10:25:54;5.90;;;2.72;;
54853;SDS011;40747;49.480;8.658;2022-09-13T10:28:24;3.20;;;2.63;;
54853;SDS011;40747;49.480;8.658;2022-09-13T10:30:54;5.15;;;2.90;;
54853;SDS011;40747;49.480;8.658;2022-09-13T10:33:34;4.97;;;2.63;;
54853;SDS011;40747;49.480;8.658;2022-09-13T10:36:04;4.15;;;3.13;;
54853;SDS011;40747;49.480;8.658;2022-09-13T10:39:02;3.95;;;2.28;;
54853;SDS011;40747;49.480;8.658;2022-09-13T10:41:30;3.75;;;2.63;;
54853;SDS011;40747;49.480;8.658;2022-09-13T10:43:58;4.78;;;2.92;;
54853;SDS011;40747;49.480;8.658;2022-09-13T10:46:26;4.50;;;2.80;;
54853;SDS011;40747;49.480;8.658;2022-09-13T10:48:54;6.03;;;2.83;;
54853;SDS011;40747;49.480;8.658;2022-09-13T10:53:50;4.43;;;2.58;;
54853;SDS011;40747;49.480;8.658;2022-09-13T10:56:31;3.28;;;2.15;;
54853;SDS011;40747;49.480;8.658;2022-09-13T11:04:53;2.75;;;2.33;;
54853;SDS011;40747;49.480;8.658;2022-09-13T11:10:03;2.47;;;2.10;;
54853;SDS011;40747;49.480;8.658;2022-09-13T11:15:30;4.07;;;2.30;;
54853;SDS011;40747;49.480;8.658;2022-09-13T11:26:11;3.20;;;2.20;;
54853;SDS011;40747;49.480;8.658;2022-09-13T11:34:37;3.65;;;1.88;;
54853;SDS011;40747;49.480;8.658;2022-09-13T11:40:02;2.70;;;1.80;;
54853;SDS011;40747;49.480;8.658;2022-09-13T11:54:36;3.08;;;1.98;;
54853;SDS011;40747;49.480;8.658;2022-09-13T11:57:17;2.17;;;1.58;;
54853;SDS011;40747;49.480;8.658;2022-09-13T11:59:51;2.97;;;1.92;;
54853;SDS011;40747;49.480;8.658;2022-09-13T12:02:39;2.28;;;1.65;;
54853;SDS011;40747;49.480;8.658;2022-09-13T12:05:18;3.75;;;2.08;;
54853;SDS011;40747;49.480;8.658;2022-09-13T12:12:47;2.20;;;1.52;;
54853;SDS011;40747;49.480;8.658;2022-09-13T12:15:17;6.15;;;1.88;;
54853;SDS011;40747;49.480;8.658;2022-09-13T12:17:48;7.07;;;2.17;;
54853;SDS011;40747;49.480;8.658;2022-09-13T12:20:31;3.30;;;1.73;;
54853;SDS011;40747;49.480;8.658;2022-09-13T12:23:01;2.63;;;1.88;;
54853;SDS011;40747;49.480;8.658;2022-09-13T12:25:38;2.55;;;1.92;;
54853;SDS011;40747;49.480;8.658;2022-09-13T12:28:18;2.90;;;1.75;;
54853;SDS011;40747;49.480;8.658;2022-09-13T12:31:01;2.53;;;1.55;;
54853;SDS011;40747;49.480;8.658;2022-09-13T12:33:31;2.42;;;1.80;;
54853;SDS011;40747;49.480;8.658;2022-09-13T12:36:00;2.33;;;1.73;;
54853;SDS011;40747;49.480;8.658;2022-09-13T12:52:48;2.60;;;1.90;;
54853;SDS011;40747;49.480;8.658;2022-09-13T13:01:17;2.60;;;1.80;;
54853;SDS011;40747;49.480;8.658;2022-09-13T13:03:47;6.35;;;2.10;;
54853;SDS011;40747;49.480;8.658;2022-09-13T13:06:27;3.20;;;1.90;;
54853;SDS011;40747;49.480;8.658;2022-09-13T13:09:04;1.88;;;1.58;;
54853;SDS011;40747;49.480;8.658;2022-09-13T13:11:46;4.47;;;1.92;;
54853;SDS011;40747;49.480;8.658;2022-09-13T13:14:29;2.13;;;1.60;;
54853;SDS011;40747;49.480;8.658;2022-09-13T13:25:54;2.90;;;2.08;;
54853;SDS011;40747;49.480;8.658;2022-09-13T13:33:58;2.33;;;1.70;;
54853;SDS011;40747;49.480;8.658;2022-09-13T13:39:04;2.15;;;1.70;;
54853;SDS011;40747;49.480;8.658;2022-09-13T13:46:39;2.95;;;1.70;;
54853;SDS011;40747;49.480;8.658;2022-09-13T14:00:17;7.75;;;2.20;;
54853;SDS011;40747;49.480;8.658;2022-09-13T14:05:34;1.98;;;1.77;;
54853;SDS011;40747;49.480;8.658;2022-09-13T14:15:55;2.90;;;1.80;;
54853;SDS011;40747;49.480;8.658;2022-09-13T14:21:33;2.90;;;2.30;;
54853;SDS011;40747;49.480;8.658;2022-09-13T14:24:14;5.80;;;2.42;;
54853;SDS011;40747;49.480;8.658;2022-09-13T14:26:43;4.32;;;2.05;;
54853;SDS011;40747;49.480;8.658;2022-09-13T14:29:11;3.88;;;1.70;;
54853;SDS011;40747;49.480;8.658;2022-09-13T14:31:43;2.80;;;1.77;;
54853;SDS011;40747;49.480;8.658;2022-09-13T14:34:21;3.17;;;2.20;;
54853;SDS011;40747;49.480;8.658;2022-09-13T14:36:58;3.08;;;1.90;;
54853;SDS011;40747;49.480;8.658;2022-09-13T14:39:25;8.23;;;2.03;;
54853;SDS011;40747;49.480;8.658;2022-09-13T14:44:44;3.50;;;2.22;;
54853;SDS011;40747;49.480;8.658;2022-09-13T14:47:12;2.88;;;2.00;;
54853;SDS011;40747;49.480;8.658;2022-09-13T14:49:48;9.23;;;2.42;;
54853;SDS011;40747;49.480;8.658;2022-09-13T14:54:53;3.25;;;2.10;;
54853;SDS011;40747;49.480;8.658;2022-09-13T14:57:23;6.10;;;2.15;;
54853;SDS011;40747;49.480;8.658;2022-09-13T14:59:55;3.83;;;2.00;;
54853;SDS011;40747;49.480;8.658;2022-09-13T15:02:29;2.63;;;2.03;;
54853;SDS011;40747;49.480;8.658;2022-09-13T15:07:27;3.65;;;2.10;;
54853;SDS011;40747;49.480;8.658;2022-09-13T15:09:55;2.28;;;1.60;;
54853;SDS011;40747;49.480;8.658;2022-09-13T15:12:23;2.10;;;1.90;;
54853;SDS011;40747;49.480;8.658;2022-09-13T15:17:58;6.28;;;2.35;;
54853;SDS011;40747;49.480;8.658;2022-09-13T15:20:26;6.40;;;2.40;;
54853;SDS011;40747;49.480;8.658;2022-09-13T15:22:54;2.15;;;1.70;;
54853;SDS011;40747;49.480;8.658;2022-09-13T15:25:22;3.75;;;2.28;;
54853;SDS011;40747;49.480;8.658;2022-09-13T15:27:50;3.03;;;2.08;;
54853;SDS011;40747;49.480;8.658;2022-09-13T15:32:48;4.25;;;1.20;;
54853;SDS011;40747;49.480;8.658;2022-09-13T15:35:14;1.40;;;1.30;;
54853;SDS011;40747;49.480;8.658;2022-09-13T15:37:41;3.00;;;1.10;;
54853;SDS011;40747;49.480;8.658;2022-09-13T15:40:15;2.20;;;1.15;;
54853;SDS011;40747;49.480;8.658;2022-09-13T15:42:46;1.88;;;1.52;;
54853;SDS011;40747;49.480;8.658;2022-09-13T15:45:13;3.65;;;2.33;;
54853;SDS011;40747;49.480;8.658;2022-09-13T15:47:38;2.72;;;1.67;;
54853;SDS011;40747;49.480;8.658;2022-09-13T15:50:04;6.55;;;2.10;;
54853;SDS011;40747;49.480;8.658;2022-09-13T15:52:29;5.63;;;2.70;;
54853;SDS011;40747;49.480;8.658;2022-09-13T15:54:55;5.85;;;2.35;;
54853;SDS011;40747;49.480;8.658;2022-09-13T15:57:24;5.70;;;2.38;;
54853;SDS011;40747;49.480;8.658;2022-09-13T15:59:51;8.10;;;2.22;;
54853;SDS011;40747;49.480;8.658;2022-09-13T16:02:25;4.35;;;2.50;;
54853;SDS011;40747;49.480;8.658;2022-09-13T16:04:53;5.85;;;2.30;;
54853;SDS011;40747;49.480;8.658;2022-09-13T16:07:19;4.82;;;2.47;;
54853;SDS011;40747;49.480;8.658;2022-09-13T16:09:45;5.45;;;1.88;;
54853;SDS011;40747;49.480;8.658;2022-09-13T16:12:12;3.22;;;2.53;;
54853;SDS011;40747;49.480;8.658;2022-09-13T16:14:38;4.80;;;2.40;;
54853;SDS011;40747;49.480;8.658;2022-09-13T16:17:05;7.10;;;2.00;;
54853;SDS011;40747;49.480;8.658;2022-09-13T16:19:40;1.80;;;1.70;;
54853;SDS011;40747;49.480;8.658;2022-09-13T16:22:05;3.83;;;2.25;;
54853;SDS011;40747;49.480;8.658;2022-09-13T16:24:30;4.65;;;2.30;;
54853;SDS011;40747;49.480;8.658;2022-09-13T16:26:58;4.20;;;2.38;;
54853;SDS011;40747;49.480;8.658;2022-09-13T16:29:25;2.95;;;2.13;;
54853;SDS011;40747;49.480;8.658;2022-09-13T16:31:50;3.95;;;2.13;;
54853;SDS011;40747;49.480;8.658;2022-09-13T16:34:16;2.67;;;2.33;;
54853;SDS011;40747;49.480;8.658;2022-09-13T16:36:41;6.68;;;2.70;;
54853;SDS011;40747;49.480;8.658;2022-09-13T16:39:06;3.35;;;2.30;;
54853;SDS011;40747;49.480;8.658;2022-09-13T16:41:32;7.10;;;2.20;;
54853;SDS011;40747;49.480;8.658;2022-09-13T16:43:57;3.53;;;2.25;;
54853;SDS011;40747;49.480;8.658;2022-09-13T16:46:22;3.47;;;2.10;;
54853;SDS011;40747;49.480;8.658;2022-09-13T16:48:51;4.55;;;2.40;;
54853;SDS011;40747;49.480;8.658;2022-09-13T16:51:18;4.57;;;2.38;;
54853;SDS011;40747;49.480;8.658;2022-09-13T16:53:44;2.65;;;2.42;;
54853;SDS011;40747;49.480;8.658;2022-09-13T16:56:13;3.35;;;2.30;;
54853;SDS011;40747;49.480;8.658;2022-09-13T16:58:41;4.20;;;3.13;;
54853;SDS011;40747;49.480;8.658;2022-09-13T17:01:13;5.20;;;2.22;;
54853;SDS011;40747;49.480;8.658;2022-09-13T17:03:40;9.43;;;2.33;;
54853;SDS011;40747;49.480;8.658;2022-09-13T17:06:07;2.97;;;1.90;;
54853;SDS011;40747;49.480;8.658;2022-09-13T17:08:34;2.78;;;2.25;;
54853;SDS011;40747;49.480;8.658;2022-09-13T17:11:03;3.60;;;2.00;;
54853;SDS011;40747;49.480;8.658;2022-09-13T17:13:30;3.55;;;1.80;;
54853;SDS011;40747;49.480;8.658;2022-09-13T17:15:56;2.03;;;1.80;;
54853;SDS011;40747;49.480;8.658;2022-09-13T17:18:21;3.17;;;2.15;;
54853;SDS011;40747;49.480;8.658;2022-09-13T17:20:47;4.82;;;2.17;;
54853;SDS011;40747;49.480;8.658;2022-09-13T17:23:14;6.20;;;2.47;;
54853;SDS011;40747;49.480;8.658;2022-09-13T17:25:41;6.35;;;1.77;;
54853;SDS011;40747;49.480;8.658;2022-09-13T17:28:13;4.65;;;1.92;;
54853;SDS011;40747;49.480;8.658;2022-09-13T17:30:40;3.15;;;1.70;;
54853;SDS011;40747;49.480;8.658;2022-09-13T17:33:06;2.72;;;1.73;;
54853;SDS011;40747;49.480;8.658;2022-09-13T17:35:32;2.92;;;2.00;;
54853;SDS011;40747;49.480;8.658;2022-09-13T17:37:58;3.22;;;2.25;;
54853;SDS011;40747;49.480;8.658;2022-09-13T17:40:25;5.18;;;2.58;;
54853;SDS011;40747;49.480;8.658;2022-09-13T17:42:51;6.47;;;1.65;;
54853;SDS011;40747;49.480;8.658;2022-09-13T17:45:16;1.92;;;1.48;;
54853;SDS011;40747;49.480;8.658;2022-09-13T17:47:42;2.25;;;1.27;;
54853;SDS011;40747;49.480;8.658;2022-09-13T17:50:07;2.55;;;1.70;;
54853;SDS011;40747;49.480;8.658;2022-09-13T17:52:33;2.35;;;1.92;;
54853;SDS011;40747;49.480;8.658;2022-09-13T17:54:58;2.47;;;1.65;;
54853;SDS011;40747;49.480;8.658;2022-09-13T17:57:23;2.13;;;1.42;;
54853;SDS011;40747;49.480;8.658;2022-09-13T17:59:49;2.22;;;1.60;;
54853;SDS011;40747;49.480;8.658;2022-09-13T18:02:14;1.95;;;1.60;;
54853;SDS011;40747;49.480;8.658;2022-09-13T18:04:40;1.63;;;1.25;;
54853;SDS011;40747;49.480;8.658;2022-09-13T18:07:05;5.32;;;1.50;;
54853;SDS011;40747;49.480;8.658;2022-09-13T18:09:30;2.70;;;1.10;;
54853;SDS011;40747;49.480;8.658;2022-09-13T18:11:56;2.60;;;1.35;;
54853;SDS011;40747;49.480;8.658;2022-09-13T18:14:21;6.40;;;1.20;;
54853;SDS011;40747;49.480;8.658;2022-09-13T18:16:48;2.15;;;1.35;;
54853;SDS011;40747;49.480;8.658;2022-09-13T18:19:19;1.42;;;0.95;;